PWSweather.com
Personal Weather Stations
Station Observations
IMAZOWIE6
WarszawaPL

WarszawaPL

Lat: 52.27957, Lon: 21.05489

Elevation: 100

Station Type: WS1080

http://stacjapogody.waw.pl/

High Low Average
Temperature 37.9°F3.3°C 27.0°F-2.8°C 33.5°F0.8°C
Dew Point 10.5°F-11.9°C -170.1°F-112.3°C -26.9°F-32.7°C
Winds 4.0 mph 6.4 kmh Calm Calm 1.0 mph N1.6 kmh N
Wind Gusts 8.8 mph14.2 kmh -- 3.0 mph4.8 kmh
Humidity 33% 10% 20%
Pressure 29.06 in984.1 mb 28.77 in974.3 mb -
Precipitation 0.00 in0.0 mm - -
Hour Temp Dew Point Humidity Winds Wind Gusts Pressure Precip Precip Rate Daily Precip Total
12:01 AM 27.3°F-2.6°C -170.1°F-112.3°C - Calm Calm -- 28.85 in977.0 mb 0.00 in0.0 mm 0.00 in0.0 mm 0.00 in0.0 mm
12:16 AM 27.1°F-2.7°C -170.1°F-112.3°C - 0.6 mph N1.0 kmh N 3.4 mph5.5 kmh 28.84 in976.6 mb 0.00 in0.0 mm 0.00 in0.0 mm 0.00 in0.0 mm
12:31 AM 27.0°F-2.8°C -170.1°F-112.3°C - Calm Calm 2.0 mph3.2 kmh 28.83 in976.3 mb 0.00 in0.0 mm 0.00 in0.0 mm 0.00 in0.0 mm
12:46 AM 27.0°F-2.8°C -170.1°F-112.3°C - 0.6 mph N1.0 kmh N 3.4 mph5.5 kmh 28.83 in976.3 mb 0.00 in0.0 mm 0.00 in0.0 mm 0.00 in0.0 mm
01:01 AM 27.1°F-2.7°C -170.1°F-112.3°C - Calm Calm 0.6 mph1.0 kmh 28.82 in976.0 mb 0.00 in0.0 mm 0.00 in0.0 mm 0.00 in0.0 mm
01:16 AM 27.3°F-2.6°C -170.1°F-112.3°C - Calm Calm 0.6 mph1.0 kmh 28.82 in976.0 mb 0.00 in0.0 mm 0.00 in0.0 mm 0.00 in0.0 mm
01:31 AM 27.5°F-2.5°C -170.1°F-112.3°C - 0.6 mph N1.0 kmh N 3.4 mph5.5 kmh 28.82 in976.0 mb 0.00 in0.0 mm 0.00 in0.0 mm 0.00 in0.0 mm
01:46 AM 27.5°F-2.5°C -170.1°F-112.3°C - Calm Calm 1.4 mph2.3 kmh 28.81 in975.6 mb 0.00 in0.0 mm 0.00 in0.0 mm 0.00 in0.0 mm
02:01 AM 27.7°F-2.4°C -170.0°F-112.2°C - 0.6 mph N1.0 kmh N 3.4 mph5.5 kmh 28.80 in975.3 mb 0.00 in0.0 mm 0.00 in0.0 mm 0.00 in0.0 mm
02:16 AM 27.7°F-2.4°C -170.0°F-112.2°C - Calm Calm 1.4 mph2.3 kmh 28.80 in975.3 mb 0.00 in0.0 mm 0.00 in0.0 mm 0.00 in0.0 mm
02:31 AM 27.7°F-2.4°C -170.0°F-112.2°C - 0.6 mph N1.0 kmh N 3.4 mph5.5 kmh 28.79 in974.9 mb 0.00 in0.0 mm 0.00 in0.0 mm 0.00 in0.0 mm
02:46 AM 27.9°F-2.3°C -170.0°F-112.2°C - 0.6 mph N1.0 kmh N 2.8 mph4.5 kmh 28.79 in974.9 mb 0.00 in0.0 mm 0.00 in0.0 mm 0.00 in0.0 mm
03:01 AM 27.7°F-2.4°C -170.0°F-112.2°C - Calm Calm 2.8 mph4.5 kmh 28.78 in974.6 mb 0.00 in0.0 mm 0.00 in0.0 mm 0.00 in0.0 mm
03:16 AM 27.9°F-2.3°C -21.6°F-29.8°C 10% Calm Calm -- 28.78 in974.6 mb 0.00 in0.0 mm 0.00 in0.0 mm 0.00 in0.0 mm
03:31 AM 28.0°F-2.2°C -19.7°F-28.7°C 11% Calm Calm -- 28.77 in974.3 mb 0.00 in0.0 mm 0.00 in0.0 mm 0.00 in0.0 mm
03:46 AM 28.6°F-1.9°C -17.6°F-27.6°C 12% Calm Calm 2.0 mph3.2 kmh 28.77 in974.3 mb 0.00 in0.0 mm 0.00 in0.0 mm 0.00 in0.0 mm
04:01 AM 29.1°F-1.6°C -15.7°F-26.5°C 13% Calm Calm 0.6 mph1.0 kmh 28.77 in974.3 mb 0.00 in0.0 mm 0.00 in0.0 mm 0.00 in0.0 mm
04:16 AM 30.4°F-0.9°C -13.2°F-25.1°C 14% Calm Calm -- 28.77 in974.3 mb 0.00 in0.0 mm 0.00 in0.0 mm 0.00 in0.0 mm
04:31 AM 32.0°F0.0°C -9.3°F-22.9°C 16% 2.0 mph N3.2 kmh N 3.4 mph5.5 kmh 28.77 in974.3 mb 0.00 in0.0 mm 0.00 in0.0 mm 0.00 in0.0 mm
04:46 AM 33.1°F0.6°C -7.2°F-21.8°C 17% 2.0 mph N3.2 kmh N 4.8 mph7.7 kmh 28.77 in974.3 mb 0.00 in0.0 mm 0.00 in0.0 mm 0.00 in0.0 mm
05:01 AM 33.6°F0.9°C -5.6°F-20.9°C 18% 3.4 mph N5.5 kmh N 7.4 mph11.9 kmh 28.77 in974.3 mb 0.00 in0.0 mm 0.00 in0.0 mm 0.00 in0.0 mm
05:16 AM 33.8°F1.0°C -4.3°F-20.2°C 19% 4.0 mph N6.4 kmh N 6.8 mph10.9 kmh 28.77 in974.3 mb 0.00 in0.0 mm 0.00 in0.0 mm 0.00 in0.0 mm
05:31 AM 34.0°F1.1°C -4.1°F-20.1°C 19% 2.0 mph N3.2 kmh N 3.4 mph5.5 kmh 28.77 in974.3 mb 0.00 in0.0 mm 0.00 in0.0 mm 0.00 in0.0 mm
05:46 AM 34.0°F1.1°C -3.1°F-19.5°C 20% 2.8 mph N4.5 kmh N 5.4 mph8.7 kmh 28.77 in974.3 mb 0.00 in0.0 mm 0.00 in0.0 mm 0.00 in0.0 mm
06:01 AM 34.2°F1.2°C -1.9°F-18.8°C 21% 2.0 mph N3.2 kmh N 4.8 mph7.7 kmh 28.77 in974.3 mb 0.00 in0.0 mm 0.00 in0.0 mm 0.00 in0.0 mm
06:16 AM 34.2°F1.2°C -0.9°F-18.3°C 22% 3.4 mph N5.5 kmh N 6.8 mph10.9 kmh 28.77 in974.3 mb 0.00 in0.0 mm 0.00 in0.0 mm 0.00 in0.0 mm
06:31 AM 34.2°F1.2°C -0.9°F-18.3°C 22% 2.8 mph N4.5 kmh N 4.8 mph7.7 kmh 28.77 in974.3 mb 0.00 in0.0 mm 0.00 in0.0 mm 0.00 in0.0 mm
06:46 AM 34.3°F1.3°C 0.2°F-17.7°C 23% 4.0 mph N6.4 kmh N 8.8 mph14.2 kmh 28.77 in974.3 mb 0.00 in0.0 mm 0.00 in0.0 mm 0.00 in0.0 mm
07:01 AM 34.3°F1.3°C 1.1°F-17.2°C 24% 3.4 mph N5.5 kmh N 6.2 mph10.0 kmh 28.77 in974.3 mb 0.00 in0.0 mm 0.00 in0.0 mm 0.00 in0.0 mm
07:16 AM 34.2°F1.2°C 0.9°F-17.3°C 24% 4.0 mph N6.4 kmh N 6.8 mph10.9 kmh 28.78 in974.6 mb 0.00 in0.0 mm 0.00 in0.0 mm 0.00 in0.0 mm
07:31 AM 34.3°F1.3°C 1.9°F-16.7°C 25% 4.0 mph N6.4 kmh N 6.8 mph10.9 kmh 28.78 in974.6 mb 0.00 in0.0 mm 0.00 in0.0 mm 0.00 in0.0 mm
07:46 AM 34.3°F1.3°C 1.9°F-16.7°C 25% 3.4 mph N5.5 kmh N 7.4 mph11.9 kmh 28.78 in974.6 mb 0.00 in0.0 mm 0.00 in0.0 mm 0.00 in0.0 mm
08:01 AM 34.2°F1.2°C 2.6°F-16.3°C 26% 2.8 mph N4.5 kmh N 5.4 mph8.7 kmh 28.78 in974.6 mb 0.00 in0.0 mm 0.00 in0.0 mm 0.00 in0.0 mm
08:16 AM 34.3°F1.3°C 3.6°F-15.8°C 27% 2.8 mph N4.5 kmh N 6.2 mph10.0 kmh 28.78 in974.6 mb 0.00 in0.0 mm 0.00 in0.0 mm 0.00 in0.0 mm
08:31 AM 34.2°F1.2°C 3.4°F-15.9°C 27% 3.4 mph N5.5 kmh N 5.4 mph8.7 kmh 28.80 in975.3 mb 0.00 in0.0 mm 0.00 in0.0 mm 0.00 in0.0 mm
08:46 AM 34.0°F1.1°C 4.1°F-15.5°C 28% 3.4 mph N5.5 kmh N 6.2 mph10.0 kmh 28.80 in975.3 mb 0.00 in0.0 mm 0.00 in0.0 mm 0.00 in0.0 mm
09:01 AM 34.2°F1.2°C 4.2°F-15.4°C 28% 2.8 mph N4.5 kmh N 5.4 mph8.7 kmh 28.79 in974.9 mb 0.00 in0.0 mm 0.00 in0.0 mm 0.00 in0.0 mm
09:16 AM 34.3°F1.3°C 4.4°F-15.3°C 28% 2.8 mph N4.5 kmh N 5.4 mph8.7 kmh 28.81 in975.6 mb 0.00 in0.0 mm 0.00 in0.0 mm 0.00 in0.0 mm
09:31 AM 34.5°F1.4°C 5.3°F-14.8°C 29% 2.8 mph N4.5 kmh N 6.8 mph10.9 kmh 28.81 in975.6 mb 0.00 in0.0 mm 0.00 in0.0 mm 0.00 in0.0 mm
09:46 AM 34.7°F1.5°C 6.2°F-14.3°C 30% 2.0 mph N3.2 kmh N 4.8 mph7.7 kmh 28.82 in976.0 mb 0.00 in0.0 mm 0.00 in0.0 mm 0.00 in0.0 mm
10:01 AM 34.7°F1.5°C 6.2°F-14.3°C 30% 2.0 mph N3.2 kmh N 7.4 mph11.9 kmh 28.82 in976.0 mb 0.00 in0.0 mm 0.00 in0.0 mm 0.00 in0.0 mm
10:16 AM 34.7°F1.5°C 6.2°F-14.3°C 30% 0.6 mph N1.0 kmh N 3.4 mph5.5 kmh 28.83 in976.3 mb 0.00 in0.0 mm 0.00 in0.0 mm 0.00 in0.0 mm
10:31 AM 34.5°F1.4°C 6.0°F-14.4°C 30% 2.0 mph N3.2 kmh N 4.8 mph7.7 kmh 28.84 in976.6 mb 0.01 in0.3 mm 0.05 in1.3 mm 0.01 in0.3 mm
10:46 AM 34.7°F1.5°C 6.9°F-13.9°C 31% 4.0 mph N6.4 kmh N 6.8 mph10.9 kmh 28.84 in976.6 mb 0.01 in0.3 mm 0.00 in0.0 mm 0.01 in0.3 mm
11:01 AM 35.1°F1.7°C 7.2°F-13.8°C 31% 0.6 mph N1.0 kmh N 3.4 mph5.5 kmh 28.84 in976.6 mb 0.02 in0.5 mm 0.02 in0.5 mm 0.02 in0.5 mm
11:16 AM 35.4°F1.9°C 8.2°F-13.2°C 32% 1.4 mph N2.3 kmh N 4.0 mph6.4 kmh 28.84 in976.6 mb 0.01 in0.3 mm 0.00 in0.0 mm 0.02 in0.5 mm
11:31 AM 36.1°F2.3°C 8.9°F-12.8°C 32% 2.8 mph N4.5 kmh N 8.2 mph13.2 kmh 28.85 in977.0 mb 0.02 in0.5 mm 0.05 in1.3 mm 0.04 in1.0 mm
11:46 AM 36.5°F2.5°C 9.9°F-12.3°C 33% 4.0 mph N6.4 kmh N 7.4 mph11.9 kmh 28.85 in977.0 mb 0.02 in0.5 mm 0.00 in0.0 mm 0.04 in1.0 mm
12:01 PM 36.5°F2.5°C 9.9°F-12.3°C 33% 2.0 mph N3.2 kmh N 4.0 mph6.4 kmh 28.86 in977.3 mb 0.04 in1.0 mm 0.02 in0.5 mm 0.05 in1.3 mm
12:16 PM 37.2°F2.9°C 10.5°F-11.9°C 33% 2.0 mph N3.2 kmh N 4.0 mph6.4 kmh 28.86 in977.3 mb 0.00 in0.0 mm 0.00 in0.0 mm 0.05 in1.3 mm
12:31 PM 37.0°F2.8°C 10.4°F-12.0°C 33% 2.0 mph N3.2 kmh N 4.0 mph6.4 kmh 28.87 in977.7 mb 0.00 in0.0 mm 0.00 in0.0 mm 0.05 in1.3 mm
12:46 PM 37.4°F3.0°C 10.0°F-12.2°C 32% 1.4 mph N2.3 kmh N 4.0 mph6.4 kmh 28.87 in977.7 mb 0.00 in0.0 mm 0.00 in0.0 mm 0.05 in1.3 mm
01:01 PM 37.4°F3.0°C 9.3°F-12.6°C 31% 1.4 mph N2.3 kmh N 3.4 mph5.5 kmh 28.87 in977.7 mb 0.00 in0.0 mm 0.00 in0.0 mm 0.05 in1.3 mm
01:16 PM 37.8°F3.2°C 8.1°F-13.3°C 29% 1.4 mph N2.3 kmh N 3.4 mph5.5 kmh 28.88 in978.0 mb 0.00 in0.0 mm 0.00 in0.0 mm 0.05 in1.3 mm
01:31 PM 37.9°F3.3°C 6.7°F-14.1°C 27% Calm Calm 2.0 mph3.2 kmh 28.88 in978.0 mb 0.01 in0.3 mm 0.05 in1.3 mm 0.06 in1.5 mm
01:46 PM 37.9°F3.3°C 5.0°F-15.0°C 25% Calm Calm -- 28.88 in978.0 mb 0.01 in0.3 mm 0.00 in0.0 mm 0.06 in1.5 mm
02:01 PM 37.6°F3.1°C 2.9°F-16.2°C 23% Calm Calm -- 28.88 in978.0 mb 0.01 in0.3 mm 0.00 in0.0 mm 0.06 in1.5 mm
02:16 PM 37.6°F3.1°C 1.0°F-17.2°C 21% Calm Calm 0.6 mph1.0 kmh 28.89 in978.3 mb 0.00 in0.0 mm 0.00 in0.0 mm 0.06 in1.5 mm
02:31 PM 37.2°F2.9°C -0.4°F-18.0°C 20% Calm Calm 0.6 mph1.0 kmh 28.89 in978.3 mb 0.00 in0.0 mm 0.00 in0.0 mm 0.06 in1.5 mm
02:46 PM 37.0°F2.8°C -2.7°F-19.3°C 18% Calm Calm 1.4 mph2.3 kmh 28.90 in978.7 mb 0.00 in0.0 mm 0.00 in0.0 mm 0.06 in1.5 mm
03:01 PM 36.7°F2.6°C -4.2°F-20.1°C 17% Calm Calm 0.6 mph1.0 kmh 28.90 in978.7 mb 0.00 in0.0 mm 0.00 in0.0 mm 0.06 in1.5 mm
03:16 PM 36.3°F2.4°C -7.1°F-21.7°C 15% Calm Calm -- 28.90 in978.7 mb 0.00 in0.0 mm 0.00 in0.0 mm 0.06 in1.5 mm
03:31 PM 36.0°F2.2°C -8.7°F-22.6°C 14% Calm Calm -- 28.92 in979.3 mb 0.00 in0.0 mm 0.00 in0.0 mm 0.06 in1.5 mm
03:46 PM 35.6°F2.0°C -10.5°F-23.6°C 13% Calm Calm 1.4 mph2.3 kmh 28.92 in979.3 mb 0.00 in0.0 mm 0.00 in0.0 mm 0.06 in1.5 mm
04:01 PM 35.4°F1.9°C -10.7°F-23.7°C 13% Calm Calm -- 28.92 in979.3 mb 0.00 in0.0 mm 0.00 in0.0 mm 0.06 in1.5 mm
04:16 PM 34.5°F1.4°C -12.9°F-24.9°C 12% Calm Calm 3.4 mph5.5 kmh 28.92 in979.3 mb 0.00 in0.0 mm 0.00 in0.0 mm 0.06 in1.5 mm
04:31 PM 34.3°F1.3°C -14.8°F-26.0°C 11% Calm Calm 0.6 mph1.0 kmh 28.93 in979.7 mb 0.00 in0.0 mm 0.00 in0.0 mm 0.06 in1.5 mm
04:46 PM 34.0°F1.1°C -15.1°F-26.2°C 11% Calm Calm -- 28.93 in979.7 mb 0.00 in0.0 mm 0.00 in0.0 mm 0.06 in1.5 mm
05:01 PM 33.4°F0.8°C -15.5°F-26.4°C 11% Calm Calm -- 28.94 in980.0 mb 0.00 in0.0 mm 0.00 in0.0 mm 0.06 in1.5 mm
05:16 PM 33.3°F0.7°C -15.6°F-26.4°C 11% Calm Calm -- 28.94 in980.0 mb 0.00 in0.0 mm 0.00 in0.0 mm 0.06 in1.5 mm
05:31 PM 32.9°F0.5°C -15.9°F-26.6°C 11% Calm Calm -- 28.95 in980.4 mb 0.00 in0.0 mm 0.00 in0.0 mm 0.06 in1.5 mm
05:46 PM 33.1°F0.6°C -15.8°F-26.6°C 11% Calm Calm 0.6 mph1.0 kmh 28.96 in980.7 mb 0.00 in0.0 mm 0.00 in0.0 mm 0.06 in1.5 mm
06:01 PM 33.3°F0.7°C -13.9°F-25.5°C 12% Calm Calm -- 28.97 in981.0 mb 0.00 in0.0 mm 0.00 in0.0 mm 0.06 in1.5 mm
06:16 PM 33.6°F0.9°C -13.7°F-25.4°C 12% Calm Calm 3.4 mph5.5 kmh 28.98 in981.4 mb 0.00 in0.0 mm 0.00 in0.0 mm 0.06 in1.5 mm
06:31 PM 33.8°F1.0°C -11.9°F-24.4°C 13% Calm Calm 2.0 mph3.2 kmh 28.98 in981.4 mb 0.00 in0.0 mm 0.00 in0.0 mm 0.06 in1.5 mm
06:46 PM 34.3°F1.3°C -10.0°F-23.3°C 14% Calm Calm 2.0 mph3.2 kmh 28.98 in981.4 mb 0.00 in0.0 mm 0.00 in0.0 mm 0.06 in1.5 mm
07:01 PM 34.5°F1.4°C -9.9°F-23.3°C 14% Calm Calm -- 28.99 in981.7 mb 0.00 in0.0 mm 0.00 in0.0 mm 0.06 in1.5 mm
07:16 PM 34.5°F1.4°C -9.9°F-23.3°C 14% Calm Calm 0.6 mph1.0 kmh 28.99 in981.7 mb 0.00 in0.0 mm 0.00 in0.0 mm 0.06 in1.5 mm
07:31 PM 34.5°F1.4°C -9.9°F-23.3°C 14% Calm Calm 0.6 mph1.0 kmh 28.99 in981.7 mb 0.00 in0.0 mm 0.00 in0.0 mm 0.06 in1.5 mm
07:46 PM 34.5°F1.4°C -9.9°F-23.3°C 14% Calm Calm 2.0 mph3.2 kmh 29.00 in982.1 mb 0.00 in0.0 mm 0.00 in0.0 mm 0.06 in1.5 mm
08:01 PM 34.7°F1.5°C -9.8°F-23.2°C 14% Calm Calm 0.6 mph1.0 kmh 29.00 in982.1 mb 0.00 in0.0 mm 0.00 in0.0 mm 0.06 in1.5 mm
08:16 PM 34.7°F1.5°C -9.8°F-23.2°C 14% Calm Calm 0.6 mph1.0 kmh 29.00 in982.1 mb 0.00 in0.0 mm 0.00 in0.0 mm 0.06 in1.5 mm
08:31 PM 34.5°F1.4°C -9.9°F-23.3°C 14% Calm Calm -- 29.01 in982.4 mb 0.00 in0.0 mm 0.00 in0.0 mm 0.06 in1.5 mm
08:46 PM 34.5°F1.4°C -11.4°F-24.1°C 13% Calm Calm -- 29.02 in982.7 mb 0.00 in0.0 mm 0.00 in0.0 mm 0.06 in1.5 mm
09:01 PM 34.5°F1.4°C -11.4°F-24.1°C 13% Calm Calm 0.6 mph1.0 kmh 29.02 in982.7 mb 0.00 in0.0 mm 0.00 in0.0 mm 0.06 in1.5 mm
09:16 PM 34.5°F1.4°C -11.4°F-24.1°C 13% Calm Calm 1.4 mph2.3 kmh 29.03 in983.1 mb 0.00 in0.0 mm 0.00 in0.0 mm 0.06 in1.5 mm
09:31 PM 34.3°F1.3°C -11.5°F-24.2°C 13% Calm Calm 2.0 mph3.2 kmh 29.03 in983.1 mb 0.00 in0.0 mm 0.00 in0.0 mm 0.06 in1.5 mm
09:46 PM 34.2°F1.2°C -11.7°F-24.3°C 13% Calm Calm -- 29.03 in983.1 mb 0.00 in0.0 mm 0.00 in0.0 mm 0.06 in1.5 mm
10:01 PM 34.2°F1.2°C -11.7°F-24.3°C 13% Calm Calm -- 29.04 in983.4 mb 0.00 in0.0 mm 0.00 in0.0 mm 0.06 in1.5 mm
10:16 PM 34.0°F1.1°C -11.8°F-24.3°C 13% Calm Calm -- 29.04 in983.4 mb 0.00 in0.0 mm 0.00 in0.0 mm 0.06 in1.5 mm
10:31 PM 33.8°F1.0°C -11.9°F-24.4°C 13% Calm Calm -- 29.04 in983.4 mb 0.00 in0.0 mm 0.00 in0.0 mm 0.06 in1.5 mm
10:46 PM 33.8°F1.0°C -11.9°F-24.4°C 13% Calm Calm -- 29.04 in983.4 mb 0.00 in0.0 mm 0.00 in0.0 mm 0.06 in1.5 mm
11:01 PM 34.0°F1.1°C -11.8°F-24.3°C 13% Calm Calm -- 29.05 in983.7 mb 0.00 in0.0 mm 0.00 in0.0 mm 0.06 in1.5 mm
11:16 PM 34.0°F1.1°C -11.8°F-24.3°C 13% Calm Calm 2.0 mph3.2 kmh 29.05 in983.7 mb 0.00 in0.0 mm 0.00 in0.0 mm 0.06 in1.5 mm
11:31 PM 34.2°F1.2°C -11.7°F-24.3°C 13% Calm Calm 2.0 mph3.2 kmh 29.05 in983.7 mb 0.00 in0.0 mm 0.00 in0.0 mm 0.06 in1.5 mm
11:46 PM 34.0°F1.1°C -11.8°F-24.3°C 13% Calm Calm 1.4 mph2.3 kmh 29.06 in984.1 mb 0.00 in0.0 mm 0.00 in0.0 mm 0.06 in1.5 mm